sensor_id;sensor_type;location;lat;lon;timestamp;pressure;altitude;pressure_sealevel;temperature;humidity
56052;BME280;41919;42.648;23.384;2023-09-18T00:01:36;95028.13;;;16.29;100.00
56052;BME280;41919;42.648;23.384;2023-09-18T00:04:05;95080.94;;;16.64;100.00
56052;BME280;41919;42.648;23.384;2023-09-18T00:06:30;95070.72;;;16.68;100.00
56052;BME280;41919;42.648;23.384;2023-09-18T00:08:56;95001.53;;;16.31;100.00
56052;BME280;41919;42.648;23.384;2023-09-18T00:11:21;95009.31;;;16.37;100.00
56052;BME280;41919;42.648;23.384;2023-09-18T00:13:47;95004.41;;;16.29;100.00
56052;BME280;41919;42.648;23.384;2023-09-18T00:16:12;95010.03;;;16.44;100.00
56052;BME280;41919;42.648;23.384;2023-09-18T00:18:38;95055.94;;;16.67;100.00
56052;BME280;41919;42.648;23.384;2023-09-18T00:21:03;95054.06;;;16.79;100.00
56052;BME280;41919;42.648;23.384;2023-09-18T00:23:29;95003.38;;;16.42;100.00
56052;BME280;41919;42.648;23.384;2023-09-18T00:25:55;95013.50;;;16.57;100.00
56052;BME280;41919;42.648;23.384;2023-09-18T00:28:20;95062.28;;;16.90;100.00
56052;BME280;41919;42.648;23.384;2023-09-18T00:30:49;95024.34;;;16.60;100.00
56052;BME280;41919;42.648;23.384;2023-09-18T00:33:16;95055.13;;;16.78;100.00
56052;BME280;41919;42.648;23.384;2023-09-18T00:35:48;95071.75;;;16.79;100.00
56052;BME280;41919;42.648;23.384;2023-09-18T00:38:14;94989.38;;;16.30;100.00
56052;BME280;41919;42.648;23.384;2023-09-18T00:40:40;95023.44;;;16.55;100.00
56052;BME280;41919;42.648;23.384;2023-09-18T00:43:05;94990.06;;;16.37;100.00
56052;BME280;41919;42.648;23.384;2023-09-18T00:45:31;95045.59;;;16.77;100.00
56052;BME280;41919;42.648;23.384;2023-09-18T00:47:56;95057.00;;;16.90;100.00
56052;BME280;41919;42.648;23.384;2023-09-18T00:50:22;94978.50;;;16.50;100.00
56052;BME280;41919;42.648;23.384;2023-09-18T00:52:49;95073.81;;;17.12;100.00
56052;BME280;41919;42.648;23.384;2023-09-18T00:55:15;94996.38;;;16.71;100.00
56052;BME280;41919;42.648;23.384;2023-09-18T00:57:41;95025.31;;;16.90;100.00
56052;BME280;41919;42.648;23.384;2023-09-18T01:00:08;95043.41;;;17.10;100.00
56052;BME280;41919;42.648;23.384;2023-09-18T01:02:34;95064.50;;;17.21;100.00
56052;BME280;41919;42.648;23.384;2023-09-18T01:05:00;95025.31;;;16.90;100.00
56052;BME280;41919;42.648;23.384;2023-09-18T01:07:26;95035.38;;;16.93;100.00
56052;BME280;41919;42.648;23.384;2023-09-18T01:09:52;95079.91;;;17.24;100.00
56052;BME280;41919;42.648;23.384;2023-09-18T01:12:23;95040.00;;;16.97;100.00
56052;BME280;41919;42.648;23.384;2023-09-18T01:17:28;95038.75;;;16.88;100.00
56052;BME280;41919;42.648;23.384;2023-09-18T01:19:55;95028.41;;;16.87;100.00
56052;BME280;41919;42.648;23.384;2023-09-18T01:22:20;95074.88;;;17.11;100.00
56052;BME280;41919;42.648;23.384;2023-09-18T01:24:47;95073.94;;;17.17;100.00
56052;BME280;41919;42.648;23.384;2023-09-18T01:27:15;95082.44;;;17.19;100.00
56052;BME280;41919;42.648;23.384;2023-09-18T01:29:45;95053.06;;;17.04;100.00
56052;BME280;41919;42.648;23.384;2023-09-18T01:32:11;95037.00;;;16.94;100.00
56052;BME280;41919;42.648;23.384;2023-09-18T01:34:39;95077.16;;;17.19;100.00
56052;BME280;41919;42.648;23.384;2023-09-18T01:37:07;95069.09;;;17.14;100.00
56052;BME280;41919;42.648;23.384;2023-09-18T01:39:35;95034.97;;;16.84;100.00
56052;BME280;41919;42.648;23.384;2023-09-18T01:42:04;95073.16;;;17.17;100.00
56052;BME280;41919;42.648;23.384;2023-09-18T01:44:31;95018.88;;;16.85;100.00
56052;BME280;41919;42.648;23.384;2023-09-18T01:47:02;95077.28;;;17.13;100.00
56052;BME280;41919;42.648;23.384;2023-09-18T01:51:59;95061.78;;;17.16;100.00
56052;BME280;41919;42.648;23.384;2023-09-18T01:54:25;95075.31;;;17.32;100.00
56052;BME280;41919;42.648;23.384;2023-09-18T01:56:54;95070.47;;;17.29;100.00
56052;BME280;41919;42.648;23.384;2023-09-18T01:59:20;95031.16;;;16.92;100.00
56052;BME280;41919;42.648;23.384;2023-09-18T02:01:46;95028.25;;;16.81;100.00
56052;BME280;41919;42.648;23.384;2023-09-18T02:04:11;95010.03;;;16.56;100.00
56052;BME280;41919;42.648;23.384;2023-09-18T02:06:37;95015.88;;;16.58;100.00
56052;BME280;41919;42.648;23.384;2023-09-18T02:09:02;95013.94;;;16.54;100.00
56052;BME280;41919;42.648;23.384;2023-09-18T02:11:29;95079.69;;;16.91;100.00
56052;BME280;41919;42.648;23.384;2023-09-18T02:13:54;95067.06;;;16.93;100.00
56052;BME280;41919;42.648;23.384;2023-09-18T02:16:19;95080.16;;;17.11;100.00
56052;BME280;41919;42.648;23.384;2023-09-18T02:18:49;95077.63;;;17.16;100.00
56052;BME280;41919;42.648;23.384;2023-09-18T02:21:21;95083.78;;;17.22;100.00
56052;BME280;41919;42.648;23.384;2023-09-18T02:23:50;95049.06;;;17.01;100.00
56052;BME280;41919;42.648;23.384;2023-09-18T02:26:19;95094.81;;;17.31;100.00
56052;BME280;41919;42.648;23.384;2023-09-18T02:28:45;95072.56;;;17.15;100.00
56052;BME280;41919;42.648;23.384;2023-09-18T02:31:11;95044.72;;;16.95;100.00
56052;BME280;41919;42.648;23.384;2023-09-18T02:33:37;95084.88;;;17.09;100.00
56052;BME280;41919;42.648;23.384;2023-09-18T02:36:03;95086.69;;;16.97;100.00
56052;BME280;41919;42.648;23.384;2023-09-18T02:38:28;95042.72;;;16.67;100.00
56052;BME280;41919;42.648;23.384;2023-09-18T02:40:55;95088.53;;;16.96;100.00
56052;BME280;41919;42.648;23.384;2023-09-18T02:43:22;95085.69;;;16.98;100.00
56052;BME280;41919;42.648;23.384;2023-09-18T02:45:48;95090.16;;;16.97;100.00
56052;BME280;41919;42.648;23.384;2023-09-18T02:48:13;95071.91;;;16.84;100.00
56052;BME280;41919;42.648;23.384;2023-09-18T02:50:38;95023.00;;;16.58;100.00
56052;BME280;41919;42.648;23.384;2023-09-18T02:53:06;95068.22;;;16.85;100.00
56052;BME280;41919;42.648;23.384;2023-09-18T02:55:33;95061.66;;;16.76;100.00
56052;BME280;41919;42.648;23.384;2023-09-18T02:57:59;95027.78;;;16.37;100.00
56052;BME280;41919;42.648;23.384;2023-09-18T03:00:24;95020.56;;;16.21;100.00
56052;BME280;41919;42.648;23.384;2023-09-18T03:02:50;95088.59;;;16.42;100.00
56052;BME280;41919;42.648;23.384;2023-09-18T03:05:15;95044.13;;;16.04;100.00
56052;BME280;41919;42.648;23.384;2023-09-18T03:07:40;95084.22;;;16.36;100.00
56052;BME280;41919;42.648;23.384;2023-09-18T03:10:06;95072.81;;;16.12;100.00
56052;BME280;41919;42.648;23.384;2023-09-18T03:12:32;95045.22;;;15.84;100.00
56052;BME280;41919;42.648;23.384;2023-09-18T03:14:59;95088.84;;;16.11;100.00
56052;BME280;41919;42.648;23.384;2023-09-18T03:17:24;95077.47;;;15.98;100.00
56052;BME280;41919;42.648;23.384;2023-09-18T03:19:50;95025.75;;;15.55;100.00
56052;BME280;41919;42.648;23.384;2023-09-18T03:22:15;95084.63;;;15.79;100.00
56052;BME280;41919;42.648;23.384;2023-09-18T03:24:41;95031.44;;;15.52;100.00
56052;BME280;41919;42.648;23.384;2023-09-18T03:27:06;95081.00;;;15.92;100.00
56052;BME280;41919;42.648;23.384;2023-09-18T03:29:32;95017.69;;;15.50;100.00
56052;BME280;41919;42.648;23.384;2023-09-18T03:31:58;95071.13;;;15.87;100.00
56052;BME280;41919;42.648;23.384;2023-09-18T03:34:25;95019.78;;;15.60;100.00
56052;BME280;41919;42.648;23.384;2023-09-18T03:36:53;95075.41;;;16.00;100.00
56052;BME280;41919;42.648;23.384;2023-09-18T03:39:19;94902.25;;;14.86;100.00
56052;BME280;41919;42.648;23.384;2023-09-18T03:41:45;95003.75;;;15.61;100.00
56052;BME280;41919;42.648;23.384;2023-09-18T03:44:11;95063.97;;;16.06;100.00
56052;BME280;41919;42.648;23.384;2023-09-18T03:46:36;95069.25;;;16.06;100.00
56052;BME280;41919;42.648;23.384;2023-09-18T03:49:02;95061.47;;;16.12;100.00
56052;BME280;41919;42.648;23.384;2023-09-18T03:51:28;95064.91;;;16.12;100.00
56052;BME280;41919;42.648;23.384;2023-09-18T03:53:55;95066.88;;;16.17;100.00
56052;BME280;41919;42.648;23.384;2023-09-18T03:56:20;95038.75;;;16.11;100.00
56052;BME280;41919;42.648;23.384;2023-09-18T03:58:47;95025.09;;;15.90;100.00
56052;BME280;41919;42.648;23.384;2023-09-18T04:01:15;95009.72;;;15.68;100.00
56052;BME280;41919;42.648;23.384;2023-09-18T04:03:40;95072.91;;;16.05;100.00
56052;BME280;41919;42.648;23.384;2023-09-18T04:06:06;95066.50;;;16.01;100.00
56052;BME280;41919;42.648;23.384;2023-09-18T04:08:32;95069.16;;;15.83;100.00
56052;BME280;41919;42.648;23.384;2023-09-18T04:10:57;95068.88;;;15.73;100.00
56052;BME280;41919;42.648;23.384;2023-09-18T04:13:23;95069.50;;;15.75;100.00
56052;BME280;41919;42.648;23.384;2023-09-18T04:15:48;95025.81;;;15.48;100.00
56052;BME280;41919;42.648;23.384;2023-09-18T04:18:14;95066.53;;;15.83;100.00
56052;BME280;41919;42.648;23.384;2023-09-18T04:20:39;95072.38;;;15.85;100.00
56052;BME280;41919;42.648;23.384;2023-09-18T04:25:45;95016.44;;;15.53;100.00
56052;BME280;41919;42.648;23.384;2023-09-18T04:28:12;95046.13;;;15.78;100.00
56052;BME280;41919;42.648;23.384;2023-09-18T04:30:37;95032.22;;;15.71;100.00
56052;BME280;41919;42.648;23.384;2023-09-18T04:33:03;95068.22;;;16.07;100.00
56052;BME280;41919;42.648;23.384;2023-09-18T04:35:29;95052.50;;;16.13;100.00
56052;BME280;41919;42.648;23.384;2023-09-18T04:37:56;95006.63;;;15.90;100.00
56052;BME280;41919;42.648;23.384;2023-09-18T04:40:22;95025.56;;;16.11;100.00
56052;BME280;41919;42.648;23.384;2023-09-18T04:42:49;95080.22;;;16.45;100.00
56052;BME280;41919;42.648;23.384;2023-09-18T04:45:14;95024.56;;;16.35;100.00
56052;BME280;41919;42.648;23.384;2023-09-18T04:47:41;95012.66;;;16.44;100.00
56052;BME280;41919;42.648;23.384;2023-09-18T04:50:07;95009.91;;;16.63;100.00
56052;BME280;41919;42.648;23.384;2023-09-18T04:52:34;95063.03;;;17.14;100.00
56052;BME280;41919;42.648;23.384;2023-09-18T04:54:59;95074.38;;;17.38;100.00
56052;BME280;41919;42.648;23.384;2023-09-18T04:57:25;95083.00;;;17.74;100.00
56052;BME280;41919;42.648;23.384;2023-09-18T04:59:50;95027.84;;;17.66;100.00
56052;BME280;41919;42.648;23.384;2023-09-18T05:02:15;95066.94;;;18.21;100.00
56052;BME280;41919;42.648;23.384;2023-09-18T05:04:42;95018.84;;;18.24;100.00
56052;BME280;41919;42.648;23.384;2023-09-18T05:07:07;95065.38;;;18.88;100.00
56052;BME280;41919;42.648;23.384;2023-09-18T05:09:32;95050.00;;;19.07;100.00
56052;BME280;41919;42.648;23.384;2023-09-18T05:11:59;95060.09;;;19.49;100.00
56052;BME280;41919;42.648;23.384;2023-09-18T05:14:25;95059.34;;;19.75;100.00
56052;BME280;41919;42.648;23.384;2023-09-18T05:16:50;95069.22;;;20.07;100.00
56052;BME280;41919;42.648;23.384;2023-09-18T05:19:16;95024.81;;;19.97;100.00
56052;BME280;41919;42.648;23.384;2023-09-18T05:21:41;95042.78;;;20.17;100.00
56052;BME280;41919;42.648;23.384;2023-09-18T05:24:07;95033.28;;;20.27;100.00
56052;BME280;41919;42.648;23.384;2023-09-18T05:26:33;95085.59;;;20.91;100.00
56052;BME280;41919;42.648;23.384;2023-09-18T05:28:59;95039.91;;;20.94;100.00
56052;BME280;41919;42.648;23.384;2023-09-18T05:31:24;95032.69;;;20.14;100.00
56052;BME280;41919;42.648;23.384;2023-09-18T05:33:49;95065.47;;;21.00;100.00
56052;BME280;41919;42.648;23.384;2023-09-18T05:36:15;95031.59;;;21.28;100.00
56052;BME280;41919;42.648;23.384;2023-09-18T05:38:41;95042.72;;;21.88;100.00
56052;BME280;41919;42.648;23.384;2023-09-18T05:41:07;94994.88;;;22.08;100.00
56052;BME280;41919;42.648;23.384;2023-09-18T05:43:32;95077.47;;;22.65;100.00
56052;BME280;41919;42.648;23.384;2023-09-18T05:45:58;95080.88;;;23.22;100.00
56052;BME280;41919;42.648;23.384;2023-09-18T05:48:24;95082.38;;;23.59;72.89
56052;BME280;41919;42.648;23.384;2023-09-18T05:50:49;95085.91;;;24.09;67.72
56052;BME280;41919;42.648;23.384;2023-09-18T05:53:15;95056.03;;;23.37;70.05
56052;BME280;41919;42.648;23.384;2023-09-18T05:55:40;95087.16;;;23.67;77.71
56052;BME280;41919;42.648;23.384;2023-09-18T05:58:06;95045.47;;;24.65;73.22
56052;BME280;41919;42.648;23.384;2023-09-18T06:00:32;95086.81;;;25.02;64.30
56052;BME280;41919;42.648;23.384;2023-09-18T06:02:58;95051.72;;;25.62;60.91
56052;BME280;41919;42.648;23.384;2023-09-18T06:05:24;95089.78;;;26.59;56.93
56052;BME280;41919;42.648;23.384;2023-09-18T06:07:50;95087.75;;;27.17;53.80
56052;BME280;41919;42.648;23.384;2023-09-18T06:10:16;95081.66;;;27.58;52.02
56052;BME280;41919;42.648;23.384;2023-09-18T06:12:43;95045.06;;;27.76;50.17
56052;BME280;41919;42.648;23.384;2023-09-18T06:15:09;95048.19;;;28.20;48.90
56052;BME280;41919;42.648;23.384;2023-09-18T06:17:44;95085.75;;;28.92;46.28
56052;BME280;41919;42.648;23.384;2023-09-18T06:20:11;95038.19;;;29.10;45.66
56052;BME280;41919;42.648;23.384;2023-09-18T06:22:38;95080.13;;;28.58;45.73
56052;BME280;41919;42.648;23.384;2023-09-18T06:25:05;95061.94;;;28.04;47.75
56052;BME280;41919;42.648;23.384;2023-09-18T06:27:31;95052.91;;;28.82;45.79
56052;BME280;41919;42.648;23.384;2023-09-18T06:29:57;95062.00;;;29.57;43.13
56052;BME280;41919;42.648;23.384;2023-09-18T06:32:23;95078.16;;;30.23;41.58
56052;BME280;41919;42.648;23.384;2023-09-18T06:34:48;95091.50;;;30.98;39.73
56052;BME280;41919;42.648;23.384;2023-09-18T06:37:13;95062.59;;;31.07;38.66
56052;BME280;41919;42.648;23.384;2023-09-18T06:39:39;95073.66;;;31.71;37.15
56052;BME280;41919;42.648;23.384;2023-09-18T06:42:05;95042.69;;;31.89;36.14
56052;BME280;41919;42.648;23.384;2023-09-18T06:44:30;95088.94;;;32.47;35.22
56052;BME280;41919;42.648;23.384;2023-09-18T06:46:56;95085.63;;;32.96;33.93
56052;BME280;41919;42.648;23.384;2023-09-18T06:49:21;95086.91;;;33.56;32.35
56052;BME280;41919;42.648;23.384;2023-09-18T06:51:46;95079.25;;;33.71;32.54
56052;BME280;41919;42.648;23.384;2023-09-18T06:54:12;95057.13;;;33.93;31.38
56052;BME280;41919;42.648;23.384;2023-09-18T06:56:37;95089.56;;;34.55;30.41
56052;BME280;41919;42.648;23.384;2023-09-18T06:59:03;95040.84;;;34.18;30.11
56052;BME280;41919;42.648;23.384;2023-09-18T07:01:28;95081.84;;;34.57;29.87
56052;BME280;41919;42.648;23.384;2023-09-18T07:03:55;95081.91;;;35.45;28.67
56052;BME280;41919;42.648;23.384;2023-09-18T07:06:21;95038.53;;;35.33;28.20
56052;BME280;41919;42.648;23.384;2023-09-18T07:08:47;95095.94;;;35.95;28.08
56052;BME280;41919;42.648;23.384;2023-09-18T07:11:14;95069.31;;;33.05;31.85
56052;BME280;41919;42.648;23.384;2023-09-18T07:13:39;95055.38;;;32.81;33.13
56052;BME280;41919;42.648;23.384;2023-09-18T07:16:06;95056.88;;;33.86;30.82
56052;BME280;41919;42.648;23.384;2023-09-18T07:18:31;95045.34;;;34.02;30.25
56052;BME280;41919;42.648;23.384;2023-09-18T07:20:57;95084.25;;;34.87;29.09
56052;BME280;41919;42.648;23.384;2023-09-18T07:23:22;95044.53;;;34.94;28.45
56052;BME280;41919;42.648;23.384;2023-09-18T07:25:48;95086.28;;;33.72;30.48
56052;BME280;41919;42.648;23.384;2023-09-18T07:28:13;95092.63;;;32.63;32.51
56052;BME280;41919;42.648;23.384;2023-09-18T07:30:45;95064.81;;;32.54;33.03
56052;BME280;41919;42.648;23.384;2023-09-18T07:33:12;95073.28;;;33.65;31.05
56052;BME280;41919;42.648;23.384;2023-09-18T07:35:38;95084.75;;;34.76;29.66
56052;BME280;41919;42.648;23.384;2023-09-18T07:38:04;95093.97;;;34.47;29.68
56052;BME280;41919;42.648;23.384;2023-09-18T07:40:29;95060.03;;;31.88;33.71
56052;BME280;41919;42.648;23.384;2023-09-18T07:42:55;95074.66;;;32.17;33.88
56052;BME280;41919;42.648;23.384;2023-09-18T07:45:20;95090.00;;;32.88;32.75
56052;BME280;41919;42.648;23.384;2023-09-18T07:47:46;95043.13;;;32.96;31.90
56052;BME280;41919;42.648;23.384;2023-09-18T07:50:12;95048.34;;;33.72;30.24
56052;BME280;41919;42.648;23.384;2023-09-18T07:52:38;95069.56;;;33.82;30.40
56052;BME280;41919;42.648;23.384;2023-09-18T07:55:03;95079.69;;;34.22;29.87
56052;BME280;41919;42.648;23.384;2023-09-18T07:57:29;95084.75;;;34.11;29.98
56052;BME280;41919;42.648;23.384;2023-09-18T07:59:57;95025.63;;;33.89;30.06
56052;BME280;41919;42.648;23.384;2023-09-18T08:02:22;95028.28;;;32.06;33.34
56052;BME280;41919;42.648;23.384;2023-09-18T08:04:48;95028.56;;;31.24;34.88
56052;BME280;41919;42.648;23.384;2023-09-18T08:07:13;95057.28;;;31.29;35.55
56052;BME280;41919;42.648;23.384;2023-09-18T08:09:39;95079.38;;;31.99;33.94
56052;BME280;41919;42.648;23.384;2023-09-18T08:12:07;95028.72;;;31.87;33.89
56052;BME280;41919;42.648;23.384;2023-09-18T08:14:34;95029.88;;;31.77;33.90
56052;BME280;41919;42.648;23.384;2023-09-18T08:17:03;95034.53;;;31.47;34.44
56052;BME280;41919;42.648;23.384;2023-09-18T08:19:32;95074.38;;;30.24;37.84
56052;BME280;41919;42.648;23.384;2023-09-18T08:21:58;95081.88;;;29.39;40.16
56052;BME280;41919;42.648;23.384;2023-09-18T08:24:25;95060.94;;;28.73;42.05
56052;BME280;41919;42.648;23.384;2023-09-18T08:26:50;95074.56;;;28.77;42.37
56052;BME280;41919;42.648;23.384;2023-09-18T08:29:16;95067.72;;;28.11;43.01
56052;BME280;41919;42.648;23.384;2023-09-18T08:31:42;95012.59;;;28.37;42.49
56052;BME280;41919;42.648;23.384;2023-09-18T08:34:07;95061.59;;;29.32;40.62
56052;BME280;41919;42.648;23.384;2023-09-18T08:36:33;95023.88;;;28.92;41.07
56052;BME280;41919;42.648;23.384;2023-09-18T08:38:58;95068.75;;;28.83;41.26
56052;BME280;41919;42.648;23.384;2023-09-18T08:41:24;95000.69;;;27.78;42.72
56052;BME280;41919;42.648;23.384;2023-09-18T08:43:57;95041.47;;;27.94;42.88
56052;BME280;41919;42.648;23.384;2023-09-18T08:46:24;95007.72;;;27.52;42.92
56052;BME280;41919;42.648;23.384;2023-09-18T08:48:51;95001.53;;;27.37;43.92
56052;BME280;41919;42.648;23.384;2023-09-18T08:51:18;95037.72;;;27.26;44.67
56052;BME280;41919;42.648;23.384;2023-09-18T08:53:44;95056.09;;;26.86;47.01
56052;BME280;41919;42.648;23.384;2023-09-18T08:56:09;94979.31;;;26.63;46.67
56052;BME280;41919;42.648;23.384;2023-09-18T08:58:37;95028.06;;;27.67;45.07
56052;BME280;41919;42.648;23.384;2023-09-18T09:01:05;95017.41;;;27.06;45.46
56052;BME280;41919;42.648;23.384;2023-09-18T09:03:37;94993.56;;;26.91;45.48
56052;BME280;41919;42.648;23.384;2023-09-18T09:06:04;94996.28;;;27.32;44.68
56052;BME280;41919;42.648;23.384;2023-09-18T09:08:29;95054.72;;;27.35;45.53
56052;BME280;41919;42.648;23.384;2023-09-18T09:10:55;95046.66;;;27.22;45.88
56052;BME280;41919;42.648;23.384;2023-09-18T09:13:23;95005.09;;;27.61;43.72
56052;BME280;41919;42.648;23.384;2023-09-18T09:15:53;94995.78;;;27.30;44.75
56052;BME280;41919;42.648;23.384;2023-09-18T09:18:22;95034.56;;;27.52;44.53
56052;BME280;41919;42.648;23.384;2023-09-18T09:21:03;95040.97;;;28.29;42.47
56052;BME280;41919;42.648;23.384;2023-09-18T09:23:45;94960.84;;;28.08;41.74
56052;BME280;41919;42.648;23.384;2023-09-18T09:26:17;95026.50;;;28.39;41.70
56052;BME280;41919;42.648;23.384;2023-09-18T09:28:44;95026.31;;;28.35;41.71
56052;BME280;41919;42.648;23.384;2023-09-18T09:31:10;94985.44;;;27.10;43.81
56052;BME280;41919;42.648;23.384;2023-09-18T09:33:36;95017.56;;;26.82;45.68
56052;BME280;41919;42.648;23.384;2023-09-18T09:36:07;95031.75;;;26.69;45.38
56052;BME280;41919;42.648;23.384;2023-09-18T09:38:33;95029.72;;;26.93;42.38
56052;BME280;41919;42.648;23.384;2023-09-18T09:41:00;95029.59;;;26.85;43.48
56052;BME280;41919;42.648;23.384;2023-09-18T09:43:27;94988.84;;;26.69;43.66
56052;BME280;41919;42.648;23.384;2023-09-18T09:46:02;94893.94;;;26.23;43.42
56052;BME280;41919;42.648;23.384;2023-09-18T09:48:28;95020.19;;;27.15;43.40
56052;BME280;41919;42.648;23.384;2023-09-18T09:51:00;94995.28;;;27.28;42.76
56052;BME280;41919;42.648;23.384;2023-09-18T09:53:45;95014.56;;;27.30;43.72
56052;BME280;41919;42.648;23.384;2023-09-18T09:56:13;95011.63;;;26.71;44.42
56052;BME280;41919;42.648;23.384;2023-09-18T09:58:39;95015.44;;;25.94;46.17
56052;BME280;41919;42.648;23.384;2023-09-18T10:01:11;94975.34;;;25.27;46.79
56052;BME280;41919;42.648;23.384;2023-09-18T10:03:44;94969.06;;;25.37;47.10
56052;BME280;41919;42.648;23.384;2023-09-18T10:06:10;94965.69;;;25.69;47.47
56052;BME280;41919;42.648;23.384;2023-09-18T10:08:40;95020.44;;;26.20;46.56
56052;BME280;41919;42.648;23.384;2023-09-18T10:11:07;94955.00;;;26.07;44.63
56052;BME280;41919;42.648;23.384;2023-09-18T10:13:59;94995.72;;;26.75;44.28
56052;BME280;41919;42.648;23.384;2023-09-18T10:16:26;94957.69;;;26.73;42.68
56052;BME280;41919;42.648;23.384;2023-09-18T10:24:42;94996.09;;;26.68;42.19
56052;BME280;41919;42.648;23.384;2023-09-18T10:27:12;94950.97;;;26.43;42.48
56052;BME280;41919;42.648;23.384;2023-09-18T10:29:41;94988.69;;;26.79;43.33
56052;BME280;41919;42.648;23.384;2023-09-18T10:32:07;94982.66;;;26.21;45.01
56052;BME280;41919;42.648;23.384;2023-09-18T10:34:34;94991.88;;;25.53;46.66
56052;BME280;41919;42.648;23.384;2023-09-18T10:37:01;94933.22;;;25.38;46.26
56052;BME280;41919;42.648;23.384;2023-09-18T10:39:35;94932.44;;;25.37;46.39
56052;BME280;41919;42.648;23.384;2023-09-18T10:42:01;94927.06;;;25.13;46.61
56052;BME280;41919;42.648;23.384;2023-09-18T10:44:29;94973.84;;;25.40;46.77
56052;BME280;41919;42.648;23.384;2023-09-18T10:46:57;94977.94;;;25.56;46.24
56052;BME280;41919;42.648;23.384;2023-09-18T10:49:24;94979.75;;;25.61;46.50
56052;BME280;41919;42.648;23.384;2023-09-18T10:51:53;94952.25;;;25.74;45.95
56052;BME280;41919;42.648;23.384;2023-09-18T10:54:26;94967.25;;;25.94;45.59
56052;BME280;41919;42.648;23.384;2023-09-18T10:56:52;94969.41;;;26.11;45.50
56052;BME280;41919;42.648;23.384;2023-09-18T10:59:18;94911.94;;;25.85;44.68
56052;BME280;41919;42.648;23.384;2023-09-18T11:01:44;94921.38;;;26.01;44.05
56052;BME280;41919;42.648;23.384;2023-09-18T11:04:10;94957.22;;;26.19;43.92
56052;BME280;41919;42.648;23.384;2023-09-18T11:09:23;94930.41;;;26.38;43.36
56052;BME280;41919;42.648;23.384;2023-09-18T11:12:08;94952.63;;;26.38;43.48
56052;BME280;41919;42.648;23.384;2023-09-18T11:20:03;94933.25;;;26.28;44.37
56052;BME280;41919;42.648;23.384;2023-09-18T11:22:37;94869.88;;;26.04;43.56
56052;BME280;41919;42.648;23.384;2023-09-18T11:28:14;94925.63;;;26.35;43.11
56052;BME280;41919;42.648;23.384;2023-09-18T11:31:01;94926.53;;;26.44;42.11
56052;BME280;41919;42.648;23.384;2023-09-18T11:36:03;94907.31;;;26.09;42.60
56052;BME280;41919;42.648;23.384;2023-09-18T11:38:31;94854.91;;;25.32;44.26
56052;BME280;41919;42.648;23.384;2023-09-18T11:40:59;94906.19;;;25.58;45.26
56052;BME280;41919;42.648;23.384;2023-09-18T11:43:27;94924.91;;;25.58;45.11
56052;BME280;41919;42.648;23.384;2023-09-18T11:45:57;94866.56;;;25.22;44.96
56052;BME280;41919;42.648;23.384;2023-09-18T11:48:24;94912.22;;;25.83;43.53
56052;BME280;41919;42.648;23.384;2023-09-18T11:50:53;94836.41;;;25.55;43.43
56052;BME280;41919;42.648;23.384;2023-09-18T11:53:20;94910.66;;;26.01;43.96
56052;BME280;41919;42.648;23.384;2023-09-18T11:55:46;94855.63;;;25.57;44.54
56052;BME280;41919;42.648;23.384;2023-09-18T11:58:12;94903.56;;;25.72;44.34
56052;BME280;41919;42.648;23.384;2023-09-18T12:00:38;94890.81;;;25.83;44.51
56052;BME280;41919;42.648;23.384;2023-09-18T12:03:18;94849.69;;;25.60;44.15
56052;BME280;41919;42.648;23.384;2023-09-18T12:06:01;94893.16;;;26.23;43.88
56052;BME280;41919;42.648;23.384;2023-09-18T12:08:30;94880.88;;;26.21;43.03
56052;BME280;41919;42.648;23.384;2023-09-18T12:10:56;94909.13;;;26.14;44.75
56052;BME280;41919;42.648;23.384;2023-09-18T12:13:24;94846.19;;;25.78;45.03
56052;BME280;41919;42.648;23.384;2023-09-18T12:15:56;94852.50;;;25.69;45.85
56052;BME280;41919;42.648;23.384;2023-09-18T12:18:21;94852.03;;;25.48;46.24
56052;BME280;41919;42.648;23.384;2023-09-18T12:20:48;94888.41;;;25.30;47.82
56052;BME280;41919;42.648;23.384;2023-09-18T12:23:14;94889.25;;;25.44;48.35
56052;BME280;41919;42.648;23.384;2023-09-18T12:25:40;94878.84;;;25.42;48.04
56052;BME280;41919;42.648;23.384;2023-09-18T12:28:07;94896.56;;;25.38;48.20
56052;BME280;41919;42.648;23.384;2023-09-18T12:30:33;94885.22;;;25.28;49.08
56052;BME280;41919;42.648;23.384;2023-09-18T12:32:59;94841.28;;;25.10;48.85
56052;BME280;41919;42.648;23.384;2023-09-18T12:35:29;94881.06;;;25.16;48.22
56052;BME280;41919;42.648;23.384;2023-09-18T12:37:57;94895.03;;;25.32;47.56
56052;BME280;41919;42.648;23.384;2023-09-18T12:40:27;94840.50;;;25.09;48.22
56052;BME280;41919;42.648;23.384;2023-09-18T12:42:57;94828.34;;;24.98;48.03
56052;BME280;41919;42.648;23.384;2023-09-18T12:45:27;94902.28;;;25.08;48.20
56052;BME280;41919;42.648;23.384;2023-09-18T12:47:55;94882.09;;;24.96;49.04
56052;BME280;41919;42.648;23.384;2023-09-18T12:50:21;94889.84;;;24.98;48.74
56052;BME280;41919;42.648;23.384;2023-09-18T12:52:46;94894.75;;;25.10;48.35
56052;BME280;41919;42.648;23.384;2023-09-18T12:55:22;94855.50;;;24.86;48.35
56052;BME280;41919;42.648;23.384;2023-09-18T12:57:49;94877.91;;;25.33;47.34
56052;BME280;41919;42.648;23.384;2023-09-18T13:00:17;94808.69;;;25.08;47.91
56052;BME280;41919;42.648;23.384;2023-09-18T13:02:45;94870.69;;;25.53;47.14
56052;BME280;41919;42.648;23.384;2023-09-18T13:05:10;94839.44;;;25.29;47.13
56052;BME280;41919;42.648;23.384;2023-09-18T13:07:44;94870.94;;;25.70;46.28
56052;BME280;41919;42.648;23.384;2023-09-18T13:10:10;94812.69;;;25.48;46.88
56052;BME280;41919;42.648;23.384;2023-09-18T13:12:46;94813.19;;;25.50;46.50